This is the latest recevied weather packets stored in our database for station/object N4CRH-13. If no packets are shown the sender has not sent any weather packets the latest 10 day(s).
| Time | Temp. | Humidity | Pressure | Rain* | Wind** | Luminosity | Snow |
|---|---|---|---|---|---|---|---|
| 1777730274 | 10° C | 45% | 1300.9 hPa | 0 mm | - | 204 W/m² | - |
| 1777729971 | 8.89° C | 49% | 1301 hPa | 0 mm | - | 190 W/m² | - |
| 1777729060 | 7.78° C | 54% | 1301 hPa | 0 mm | - | 151 W/m² | - |
| 1777728758 | 7.22° C | 49% | 1301 hPa | 0 mm | - | 138 W/m² | - |
| 1777728454 | 6.11° C | 55% | 1300.9 hPa | 0 mm | - | 132 W/m² | - |
| 1777728151 | 6.11° C | 61% | 1301 hPa | 0 mm | - | 115 W/m² | - |
| 1777727848 | 5° C | 58% | 1301 hPa | 0 mm | - | 104 W/m² | - |
| 1777727545 | 4.44° C | 59% | 1300.8 hPa | 0 mm | - | 91 W/m² | - |
| 1777727242 | 3.33° C | 59% | 1300.9 hPa | 0 mm | - | 81 W/m² | - |
| 1777726031 | 0.56° C | 65% | 1300.5 hPa | 0 mm | - | 46 W/m² | - |
| 1777725426 | -1.11° C | 70% | 1300.7 hPa | 0 mm | - | 21 W/m² | - |
| 1777725123 | -1.11° C | 69% | 1300.7 hPa | 0 mm | - | 18 W/m² | - |
| 1777724819 | -1.11° C | 69% | 1300.4 hPa | 0 mm | - | 16 W/m² | - |
| 1777724214 | -1.67° C | 73% | 1300.3 hPa | 0 mm | - | 10 W/m² | - |
| 1777723911 | -1.67° C | 72% | 1300.2 hPa | 0 mm | - | 8 W/m² | - |
| 1777723608 | -1.11° C | 70% | 1300.4 hPa | 0 mm | - | 6 W/m² | - |
| 1777723305 | -1.67° C | 69% | 1300.1 hPa | 0 mm | - | 4 W/m² | - |
| 1777722698 | -1.67° C | 70% | 1300.2 hPa | 0 mm | - | 1 W/m² | - |
| 1777722394 | -1.67° C | 72% | 1300.3 hPa | 0 mm | - | 0 W/m² | - |
| 1777722092 | -1.67° C | 69% | 1300.3 hPa | 0 mm | - | 0 W/m² | - |
| 1777721789 | -1.11° C | 70% | 1299.9 hPa | 0 mm | - | 0 W/m² | - |
| 1777721487 | -1.67° C | 71% | 1300.2 hPa | 0 mm | - | 0 W/m² | - |
| 1777721185 | -1.11° C | 70% | 1300.2 hPa | 0 mm | - | 0 W/m² | - |
| 1777720881 | -1.11° C | 68% | 1300.2 hPa | 0 mm | - | 0 W/m² | - |
| 1777720579 | -0.56° C | 67% | 1300.2 hPa | 0 mm | - | 0 W/m² | - |
* Rain latest hour (hover to see other rain measurements)
** Current wind speed in m/s (hover to see current wind gust speed)